sensor_id;sensor_type;location;lat;lon;timestamp;P1;durP1;ratioP1;P2;durP2;ratioP2
69485;SDS011;56677;51.710;5.366;2023-04-08T06:41:09;8.25;;;4.80;;
69485;SDS011;56677;51.710;5.366;2023-04-08T06:43:35;8.87;;;4.73;;
69485;SDS011;56677;51.710;5.366;2023-04-08T06:46:00;10.27;;;5.47;;
69485;SDS011;56677;51.710;5.366;2023-04-08T06:48:25;8.30;;;4.47;;
69485;SDS011;56677;51.710;5.366;2023-04-08T06:50:50;9.95;;;5.35;;
69485;SDS011;56677;51.710;5.366;2023-04-08T06:53:15;9.68;;;4.93;;
69485;SDS011;56677;51.710;5.366;2023-04-08T06:55:40;9.13;;;5.40;;
69485;SDS011;56677;51.710;5.366;2023-04-08T06:58:05;7.63;;;4.70;;
69485;SDS011;56677;51.710;5.366;2023-04-08T07:00:30;9.98;;;4.93;;
69485;SDS011;56677;51.710;5.366;2023-04-08T07:02:56;9.87;;;5.33;;
69485;SDS011;56677;51.710;5.366;2023-04-08T07:05:21;8.00;;;4.25;;
69485;SDS011;56677;51.710;5.366;2023-04-08T07:07:46;9.27;;;5.20;;
69485;SDS011;56677;51.710;5.366;2023-04-08T07:10:11;11.52;;;5.10;;
69485;SDS011;56677;51.710;5.366;2023-04-08T07:12:36;9.80;;;4.70;;
69485;SDS011;56677;51.710;5.366;2023-04-08T07:15:01;8.25;;;4.35;;
69485;SDS011;56677;51.710;5.366;2023-04-08T07:17:27;9.50;;;4.97;;
69485;SDS011;56677;51.710;5.366;2023-04-08T07:19:52;8.75;;;4.40;;
69485;SDS011;56677;51.710;5.366;2023-04-08T07:22:17;7.70;;;4.53;;
69485;SDS011;56677;51.710;5.366;2023-04-08T07:24:42;8.40;;;4.57;;
69485;SDS011;56677;51.710;5.366;2023-04-08T07:27:07;8.07;;;4.55;;
69485;SDS011;56677;51.710;5.366;2023-04-08T07:29:32;11.50;;;4.70;;
69485;SDS011;56677;51.710;5.366;2023-04-08T07:31:57;9.93;;;4.63;;
69485;SDS011;56677;51.710;5.366;2023-04-08T07:34:23;9.23;;;4.50;;
69485;SDS011;56677;51.710;5.366;2023-04-08T07:36:48;9.40;;;4.88;;
69485;SDS011;56677;51.710;5.366;2023-04-08T07:39:13;7.60;;;4.20;;
69485;SDS011;56677;51.710;5.366;2023-04-08T07:41:38;8.70;;;4.40;;
69485;SDS011;56677;51.710;5.366;2023-04-08T07:44:03;9.48;;;5.07;;
69485;SDS011;56677;51.710;5.366;2023-04-08T07:46:28;10.80;;;4.60;;
69485;SDS011;56677;51.710;5.366;2023-04-08T07:48:53;10.68;;;4.38;;
69485;SDS011;56677;51.710;5.366;2023-04-08T07:51:18;8.20;;;4.43;;
69485;SDS011;56677;51.710;5.366;2023-04-08T07:53:44;10.27;;;4.47;;
69485;SDS011;56677;51.710;5.366;2023-04-08T07:56:09;8.40;;;4.10;;
69485;SDS011;56677;51.710;5.366;2023-04-08T07:58:35;14.38;;;5.28;;
69485;SDS011;56677;51.710;5.366;2023-04-08T08:01:00;9.15;;;4.88;;
69485;SDS011;56677;51.710;5.366;2023-04-08T08:03:25;9.70;;;4.32;;
69485;SDS011;56677;51.710;5.366;2023-04-08T08:05:50;10.43;;;4.87;;
69485;SDS011;56677;51.710;5.366;2023-04-08T08:08:15;11.10;;;5.00;;
69485;SDS011;56677;51.710;5.366;2023-04-08T08:10:40;9.97;;;4.40;;
69485;SDS011;56677;51.710;5.366;2023-04-08T08:13:06;7.87;;;4.50;;
69485;SDS011;56677;51.710;5.366;2023-04-08T08:15:31;12.43;;;3.72;;
69485;SDS011;56677;51.710;5.366;2023-04-08T08:17:56;9.47;;;4.10;;
69485;SDS011;56677;51.710;5.366;2023-04-08T08:20:27;8.37;;;4.10;;
69485;SDS011;56677;51.710;5.366;2023-04-08T08:22:53;10.73;;;4.97;;
69485;SDS011;56677;51.710;5.366;2023-04-08T08:25:18;12.02;;;6.13;;
69485;SDS011;56677;51.710;5.366;2023-04-08T08:27:43;8.35;;;4.90;;
69485;SDS011;56677;51.710;5.366;2023-04-08T08:30:08;9.80;;;5.60;;
69485;SDS011;56677;51.710;5.366;2023-04-08T08:32:33;13.80;;;5.33;;
69485;SDS011;56677;51.710;5.366;2023-04-08T08:34:58;11.13;;;5.20;;
69485;SDS011;56677;51.710;5.366;2023-04-08T08:37:24;8.43;;;4.43;;
69485;SDS011;56677;51.710;5.366;2023-04-08T08:39:49;10.50;;;4.87;;
69485;SDS011;56677;51.710;5.366;2023-04-08T08:42:23;10.00;;;5.67;;
69485;SDS011;56677;51.710;5.366;2023-04-08T08:44:49;7.78;;;4.50;;
69485;SDS011;56677;51.710;5.366;2023-04-08T08:47:14;10.13;;;4.88;;
69485;SDS011;56677;51.710;5.366;2023-04-08T08:49:39;10.70;;;4.83;;
69485;SDS011;56677;51.710;5.366;2023-04-08T08:52:04;10.55;;;4.78;;
69485;SDS011;56677;51.710;5.366;2023-04-08T08:54:30;8.13;;;4.83;;
69485;SDS011;56677;51.710;5.366;2023-04-08T08:56:55;8.00;;;4.53;;
69485;SDS011;56677;51.710;5.366;2023-04-08T08:59:20;8.00;;;4.30;;
69485;SDS011;56677;51.710;5.366;2023-04-08T09:01:45;7.97;;;4.32;;
69485;SDS011;56677;51.710;5.366;2023-04-08T09:04:11;7.05;;;3.70;;
69485;SDS011;56677;51.710;5.366;2023-04-08T09:06:37;9.57;;;3.65;;
69485;SDS011;56677;51.710;5.366;2023-04-08T09:09:02;7.60;;;4.40;;
69485;SDS011;56677;51.710;5.366;2023-04-08T09:11:27;8.33;;;4.27;;
69485;SDS011;56677;51.710;5.366;2023-04-08T09:13:53;12.57;;;4.22;;
69485;SDS011;56677;51.710;5.366;2023-04-08T09:16:19;12.52;;;4.45;;
69485;SDS011;56677;51.710;5.366;2023-04-08T09:18:44;7.28;;;4.03;;
69485;SDS011;56677;51.710;5.366;2023-04-08T09:21:09;14.43;;;3.90;;
69485;SDS011;56677;51.710;5.366;2023-04-08T09:23:39;10.68;;;3.90;;
69485;SDS011;56677;51.710;5.366;2023-04-08T09:26:08;9.13;;;3.50;;
69485;SDS011;56677;51.710;5.366;2023-04-08T09:28:33;6.95;;;3.22;;
69485;SDS011;56677;51.710;5.366;2023-04-08T09:30:58;12.00;;;3.50;;
69485;SDS011;56677;51.710;5.366;2023-04-08T09:33:30;9.40;;;3.80;;
69485;SDS011;56677;51.710;5.366;2023-04-08T09:35:55;11.25;;;3.40;;
69485;SDS011;56677;51.710;5.366;2023-04-08T09:38:20;6.80;;;3.47;;
69485;SDS011;56677;51.710;5.366;2023-04-08T09:40:45;9.15;;;3.30;;
69485;SDS011;56677;51.710;5.366;2023-04-08T09:43:10;7.05;;;3.72;;
69485;SDS011;56677;51.710;5.366;2023-04-08T09:45:37;11.15;;;3.28;;
69485;SDS011;56677;51.710;5.366;2023-04-08T09:48:11;11.37;;;3.10;;
69485;SDS011;56677;51.710;5.366;2023-04-08T09:50:39;9.20;;;3.08;;
69485;SDS011;56677;51.710;5.366;2023-04-08T09:53:13;7.80;;;3.45;;
69485;SDS011;56677;51.710;5.366;2023-04-08T09:55:43;7.90;;;3.20;;
69485;SDS011;56677;51.710;5.366;2023-04-08T09:58:10;8.07;;;4.03;;
69485;SDS011;56677;51.710;5.366;2023-04-08T10:00:41;7.90;;;3.60;;
69485;SDS011;56677;51.710;5.366;2023-04-08T10:05:52;10.30;;;3.47;;
69485;SDS011;56677;51.710;5.366;2023-04-08T10:08:17;8.37;;;3.20;;
69485;SDS011;56677;51.710;5.366;2023-04-08T10:10:42;10.57;;;3.03;;
69485;SDS011;56677;51.710;5.366;2023-04-08T10:13:08;12.47;;;3.43;;
69485;SDS011;56677;51.710;5.366;2023-04-08T10:15:34;8.27;;;3.20;;
69485;SDS011;56677;51.710;5.366;2023-04-08T10:22:59;7.07;;;3.37;;
69485;SDS011;56677;51.710;5.366;2023-04-08T10:25:27;7.50;;;3.10;;
69485;SDS011;56677;51.710;5.366;2023-04-08T10:27:53;9.13;;;3.20;;
69485;SDS011;56677;51.710;5.366;2023-04-08T10:32:52;9.95;;;3.10;;
69485;SDS011;56677;51.710;5.366;2023-04-08T10:35:27;11.13;;;3.27;;
69485;SDS011;56677;51.710;5.366;2023-04-08T10:37:52;7.53;;;3.22;;
69485;SDS011;56677;51.710;5.366;2023-04-08T10:40:18;8.87;;;3.50;;
69485;SDS011;56677;51.710;5.366;2023-04-08T10:42:43;9.03;;;3.47;;
69485;SDS011;56677;51.710;5.366;2023-04-08T10:45:08;7.20;;;3.20;;
69485;SDS011;56677;51.710;5.366;2023-04-08T10:47:34;5.88;;;2.72;;
69485;SDS011;56677;51.710;5.366;2023-04-08T10:49:59;11.77;;;3.30;;
69485;SDS011;56677;51.710;5.366;2023-04-08T10:52:24;5.60;;;3.37;;
69485;SDS011;56677;51.710;5.366;2023-04-08T10:54:49;9.13;;;3.13;;
69485;SDS011;56677;51.710;5.366;2023-04-08T10:57:15;7.13;;;3.08;;
69485;SDS011;56677;51.710;5.366;2023-04-08T10:59:40;8.93;;;3.78;;
69485;SDS011;56677;51.710;5.366;2023-04-08T11:02:05;5.20;;;2.85;;
69485;SDS011;56677;51.710;5.366;2023-04-08T11:04:30;7.68;;;3.22;;
69485;SDS011;56677;51.710;5.366;2023-04-08T11:06:55;7.07;;;3.43;;
69485;SDS011;56677;51.710;5.366;2023-04-08T11:09:20;5.63;;;3.10;;
69485;SDS011;56677;51.710;5.366;2023-04-08T11:11:45;8.63;;;3.33;;
69485;SDS011;56677;51.710;5.366;2023-04-08T11:14:11;7.10;;;3.10;;
69485;SDS011;56677;51.710;5.366;2023-04-08T11:16:37;8.98;;;3.08;;
69485;SDS011;56677;51.710;5.366;2023-04-08T11:19:03;6.72;;;2.90;;
69485;SDS011;56677;51.710;5.366;2023-04-08T11:21:28;9.63;;;3.70;;
69485;SDS011;56677;51.710;5.366;2023-04-08T11:23:54;8.75;;;3.05;;
69485;SDS011;56677;51.710;5.366;2023-04-08T11:26:19;7.20;;;3.23;;
69485;SDS011;56677;51.710;5.366;2023-04-08T11:28:45;7.87;;;3.37;;
69485;SDS011;56677;51.710;5.366;2023-04-08T11:31:11;7.20;;;3.00;;
69485;SDS011;56677;51.710;5.366;2023-04-08T11:33:36;8.85;;;3.47;;
69485;SDS011;56677;51.710;5.366;2023-04-08T11:36:01;8.10;;;3.30;;
69485;SDS011;56677;51.710;5.366;2023-04-08T11:38:26;10.67;;;3.80;;
69485;SDS011;56677;51.710;5.366;2023-04-08T11:40:55;8.95;;;4.03;;
69485;SDS011;56677;51.710;5.366;2023-04-08T11:43:20;8.02;;;4.07;;
69485;SDS011;56677;51.710;5.366;2023-04-08T11:45:45;5.77;;;3.23;;
69485;SDS011;56677;51.710;5.366;2023-04-08T11:48:11;6.65;;;3.60;;
69485;SDS011;56677;51.710;5.366;2023-04-08T11:50:37;6.07;;;3.58;;
69485;SDS011;56677;51.710;5.366;2023-04-08T11:53:02;10.67;;;3.90;;
69485;SDS011;56677;51.710;5.366;2023-04-08T11:55:28;15.67;;;4.43;;
69485;SDS011;56677;51.710;5.366;2023-04-08T11:57:54;7.97;;;4.03;;
69485;SDS011;56677;51.710;5.366;2023-04-08T12:00:20;9.18;;;4.30;;
69485;SDS011;56677;51.710;5.366;2023-04-08T12:02:45;8.00;;;3.95;;
69485;SDS011;56677;51.710;5.366;2023-04-08T12:05:11;7.90;;;3.90;;
69485;SDS011;56677;51.710;5.366;2023-04-08T12:07:36;7.38;;;4.03;;
69485;SDS011;56677;51.710;5.366;2023-04-08T12:10:01;7.18;;;4.15;;
69485;SDS011;56677;51.710;5.366;2023-04-08T12:12:26;8.17;;;4.50;;
69485;SDS011;56677;51.710;5.366;2023-04-08T12:14:51;9.50;;;4.35;;
69485;SDS011;56677;51.710;5.366;2023-04-08T12:17:16;9.00;;;4.60;;
69485;SDS011;56677;51.710;5.366;2023-04-08T12:19:41;8.73;;;4.68;;
69485;SDS011;56677;51.710;5.366;2023-04-08T12:22:06;8.60;;;4.45;;
69485;SDS011;56677;51.710;5.366;2023-04-08T12:24:32;8.55;;;4.45;;
69485;SDS011;56677;51.710;5.366;2023-04-08T12:26:57;8.03;;;4.70;;
69485;SDS011;56677;51.710;5.366;2023-04-08T12:29:22;9.80;;;4.80;;
69485;SDS011;56677;51.710;5.366;2023-04-08T12:31:47;7.80;;;4.03;;
69485;SDS011;56677;51.710;5.366;2023-04-08T12:34:12;8.33;;;4.70;;
69485;SDS011;56677;51.710;5.366;2023-04-08T12:36:37;8.77;;;4.75;;
69485;SDS011;56677;51.710;5.366;2023-04-08T12:39:02;9.60;;;4.38;;
69485;SDS011;56677;51.710;5.366;2023-04-08T12:41:28;8.13;;;4.57;;
69485;SDS011;56677;51.710;5.366;2023-04-08T12:43:53;7.50;;;4.78;;
69485;SDS011;56677;51.710;5.366;2023-04-08T12:46:18;11.30;;;4.80;;
69485;SDS011;56677;51.710;5.366;2023-04-08T12:48:43;8.88;;;4.63;;
69485;SDS011;56677;51.710;5.366;2023-04-08T12:51:08;9.35;;;4.38;;
69485;SDS011;56677;51.710;5.366;2023-04-08T12:53:33;8.40;;;4.15;;
69485;SDS011;56677;51.710;5.366;2023-04-08T12:55:58;8.80;;;4.65;;
69485;SDS011;56677;51.710;5.366;2023-04-08T12:58:24;7.90;;;4.20;;
69485;SDS011;56677;51.710;5.366;2023-04-08T13:00:49;7.65;;;4.38;;
69485;SDS011;56677;51.710;5.366;2023-04-08T13:03:14;8.13;;;4.63;;
69485;SDS011;56677;51.710;5.366;2023-04-08T13:05:39;8.48;;;4.30;;
69485;SDS011;56677;51.710;5.366;2023-04-08T13:08:04;11.52;;;6.95;;
69485;SDS011;56677;51.710;5.366;2023-04-08T13:10:29;11.07;;;6.60;;
69485;SDS011;56677;51.710;5.366;2023-04-08T13:12:55;12.85;;;7.22;;
69485;SDS011;56677;51.710;5.366;2023-04-08T13:15:20;12.63;;;7.63;;
69485;SDS011;56677;51.710;5.366;2023-04-08T13:17:45;10.15;;;6.82;;
69485;SDS011;56677;51.710;5.366;2023-04-08T13:20:10;11.18;;;7.57;;
69485;SDS011;56677;51.710;5.366;2023-04-08T13:22:35;12.73;;;8.30;;
69485;SDS011;56677;51.710;5.366;2023-04-08T13:25:00;14.20;;;8.80;;
69485;SDS011;56677;51.710;5.366;2023-04-08T13:27:25;13.05;;;7.88;;
69485;SDS011;56677;51.710;5.366;2023-04-08T13:29:51;12.10;;;8.20;;
69485;SDS011;56677;51.710;5.366;2023-04-08T13:32:16;17.05;;;8.80;;
69485;SDS011;56677;51.710;5.366;2023-04-08T13:34:41;12.27;;;7.72;;
69485;SDS011;56677;51.710;5.366;2023-04-08T13:37:06;13.23;;;7.88;;
69485;SDS011;56677;51.710;5.366;2023-04-08T13:39:31;12.48;;;8.30;;
69485;SDS011;56677;51.710;5.366;2023-04-08T13:41:56;14.07;;;7.63;;
69485;SDS011;56677;51.710;5.366;2023-04-08T13:44:21;12.70;;;7.93;;
69485;SDS011;56677;51.710;5.366;2023-04-08T13:46:46;10.50;;;6.93;;
69485;SDS011;56677;51.710;5.366;2023-04-08T13:49:12;11.88;;;7.50;;
69485;SDS011;56677;51.710;5.366;2023-04-08T13:51:37;13.37;;;7.60;;
69485;SDS011;56677;51.710;5.366;2023-04-08T13:54:02;10.25;;;7.00;;
69485;SDS011;56677;51.710;5.366;2023-04-08T13:56:27;10.77;;;6.70;;
69485;SDS011;56677;51.710;5.366;2023-04-08T13:58:52;11.20;;;7.10;;
69485;SDS011;56677;51.710;5.366;2023-04-08T14:01:17;9.70;;;6.45;;
69485;SDS011;56677;51.710;5.366;2023-04-08T14:03:42;11.35;;;6.32;;
69485;SDS011;56677;51.710;5.366;2023-04-08T14:06:07;10.20;;;6.50;;
69485;SDS011;56677;51.710;5.366;2023-04-08T14:08:32;10.35;;;6.50;;
69485;SDS011;56677;51.710;5.366;2023-04-08T14:10:58;10.77;;;6.18;;
69485;SDS011;56677;51.710;5.366;2023-04-08T14:13:23;11.10;;;6.27;;
69485;SDS011;56677;51.710;5.366;2023-04-08T14:15:48;10.37;;;6.60;;
69485;SDS011;56677;51.710;5.366;2023-04-08T14:18:13;13.20;;;6.68;;
69485;SDS011;56677;51.710;5.366;2023-04-08T14:20:38;8.95;;;5.07;;
69485;SDS011;56677;51.710;5.366;2023-04-08T14:23:03;8.38;;;5.38;;
69485;SDS011;56677;51.710;5.366;2023-04-08T14:25:29;9.63;;;5.67;;
69485;SDS011;56677;51.710;5.366;2023-04-08T14:27:54;9.97;;;5.63;;
69485;SDS011;56677;51.710;5.366;2023-04-08T14:30:19;7.97;;;5.25;;
69485;SDS011;56677;51.710;5.366;2023-04-08T14:32:44;7.50;;;4.80;;
69485;SDS011;56677;51.710;5.366;2023-04-08T14:35:09;10.67;;;6.50;;
69485;SDS011;56677;51.710;5.366;2023-04-08T14:37:34;12.15;;;6.60;;
69485;SDS011;56677;51.710;5.366;2023-04-08T14:39:59;8.55;;;5.20;;
69485;SDS011;56677;51.710;5.366;2023-04-08T14:42:24;9.40;;;4.97;;
69485;SDS011;56677;51.710;5.366;2023-04-08T14:44:50;9.75;;;5.93;;
69485;SDS011;56677;51.710;5.366;2023-04-08T14:47:15;9.45;;;5.50;;
69485;SDS011;56677;51.710;5.366;2023-04-08T14:49:40;10.97;;;5.87;;
69485;SDS011;56677;51.710;5.366;2023-04-08T14:52:05;10.07;;;5.55;;
69485;SDS011;56677;51.710;5.366;2023-04-08T14:54:30;12.68;;;5.60;;
69485;SDS011;56677;51.710;5.366;2023-04-08T14:56:55;14.53;;;6.13;;
69485;SDS011;56677;51.710;5.366;2023-04-08T14:59:20;11.70;;;6.30;;
69485;SDS011;56677;51.710;5.366;2023-04-08T15:01:45;12.65;;;6.25;;
69485;SDS011;56677;51.710;5.366;2023-04-08T15:04:11;12.80;;;6.03;;
69485;SDS011;56677;51.710;5.366;2023-04-08T15:06:36;10.63;;;5.72;;
69485;SDS011;56677;51.710;5.366;2023-04-08T15:09:01;12.75;;;5.85;;
69485;SDS011;56677;51.710;5.366;2023-04-08T15:11:26;10.63;;;6.03;;
69485;SDS011;56677;51.710;5.366;2023-04-08T15:13:51;10.05;;;5.38;;
69485;SDS011;56677;51.710;5.366;2023-04-08T15:16:18;9.27;;;5.77;;
69485;SDS011;56677;51.710;5.366;2023-04-08T15:18:43;10.77;;;5.55;;
69485;SDS011;56677;51.710;5.366;2023-04-08T15:21:08;10.53;;;5.07;;
69485;SDS011;56677;51.710;5.366;2023-04-08T15:23:33;9.80;;;5.63;;
69485;SDS011;56677;51.710;5.366;2023-04-08T15:25:58;9.40;;;5.38;;
69485;SDS011;56677;51.710;5.366;2023-04-08T15:28:23;8.80;;;4.23;;
69485;SDS011;56677;51.710;5.366;2023-04-08T15:30:48;8.07;;;4.73;;
69485;SDS011;56677;51.710;5.366;2023-04-08T15:33:14;7.72;;;4.53;;
69485;SDS011;56677;51.710;5.366;2023-04-08T15:35:39;9.23;;;4.43;;
69485;SDS011;56677;51.710;5.366;2023-04-08T15:38:04;8.05;;;3.88;;
69485;SDS011;56677;51.710;5.366;2023-04-08T15:40:31;7.83;;;4.07;;
69485;SDS011;56677;51.710;5.366;2023-04-08T15:42:56;8.25;;;4.05;;
69485;SDS011;56677;51.710;5.366;2023-04-08T15:45:21;6.90;;;4.00;;
69485;SDS011;56677;51.710;5.366;2023-04-08T15:47:47;7.78;;;4.10;;
69485;SDS011;56677;51.710;5.366;2023-04-08T15:50:12;8.85;;;4.05;;
69485;SDS011;56677;51.710;5.366;2023-04-08T15:52:37;6.85;;;4.20;;
69485;SDS011;56677;51.710;5.366;2023-04-08T15:55:02;9.43;;;4.03;;
69485;SDS011;56677;51.710;5.366;2023-04-08T15:57:27;7.00;;;4.00;;
69485;SDS011;56677;51.710;5.366;2023-04-08T15:59:52;7.10;;;3.97;;
69485;SDS011;56677;51.710;5.366;2023-04-08T16:02:18;6.17;;;3.53;;
69485;SDS011;56677;51.710;5.366;2023-04-08T16:04:43;6.70;;;3.80;;
69485;SDS011;56677;51.710;5.366;2023-04-08T16:07:08;6.93;;;3.70;;
69485;SDS011;56677;51.710;5.366;2023-04-08T16:09:33;7.47;;;3.22;;
69485;SDS011;56677;51.710;5.366;2023-04-08T16:11:58;10.27;;;3.35;;
69485;SDS011;56677;51.710;5.366;2023-04-08T16:14:23;7.68;;;3.75;;
69485;SDS011;56677;51.710;5.366;2023-04-08T16:16:48;8.00;;;3.28;;
69485;SDS011;56677;51.710;5.366;2023-04-08T16:19:13;7.78;;;3.20;;
69485;SDS011;56677;51.710;5.366;2023-04-08T16:21:39;6.70;;;3.22;;
69485;SDS011;56677;51.710;5.366;2023-04-08T16:24:04;8.53;;;3.40;;
69485;SDS011;56677;51.710;5.366;2023-04-08T16:26:29;8.17;;;3.20;;
69485;SDS011;56677;51.710;5.366;2023-04-08T16:28:54;5.95;;;3.30;;
69485;SDS011;56677;51.710;5.366;2023-04-08T16:31:19;6.22;;;3.13;;
69485;SDS011;56677;51.710;5.366;2023-04-08T16:33:44;7.20;;;3.10;;
69485;SDS011;56677;51.710;5.366;2023-04-08T16:36:09;7.32;;;3.95;;
69485;SDS011;56677;51.710;5.366;2023-04-08T16:38:35;6.33;;;4.23;;
69485;SDS011;56677;51.710;5.366;2023-04-08T16:41:00;7.10;;;4.20;;
69485;SDS011;56677;51.710;5.366;2023-04-08T16:43:25;7.45;;;4.30;;
69485;SDS011;56677;51.710;5.366;2023-04-08T16:45:50;7.77;;;4.40;;
69485;SDS011;56677;51.710;5.366;2023-04-08T16:48:16;12.02;;;4.57;;
69485;SDS011;56677;51.710;5.366;2023-04-08T16:50:41;6.83;;;3.83;;
69485;SDS011;56677;51.710;5.366;2023-04-08T16:53:06;6.68;;;3.72;;
69485;SDS011;56677;51.710;5.366;2023-04-08T16:55:31;7.30;;;3.37;;
69485;SDS011;56677;51.710;5.366;2023-04-08T16:57:57;5.63;;;3.13;;
69485;SDS011;56677;51.710;5.366;2023-04-08T17:00:22;9.82;;;3.30;;
69485;SDS011;56677;51.710;5.366;2023-04-08T17:02:47;8.77;;;3.50;;
69485;SDS011;56677;51.710;5.366;2023-04-08T17:05:12;5.70;;;3.40;;
69485;SDS011;56677;51.710;5.366;2023-04-08T17:07:37;7.63;;;3.40;;
69485;SDS011;56677;51.710;5.366;2023-04-08T17:10:02;5.82;;;3.20;;
69485;SDS011;56677;51.710;5.366;2023-04-08T17:12:28;7.17;;;3.47;;
69485;SDS011;56677;51.710;5.366;2023-04-08T17:14:53;5.75;;;3.30;;
69485;SDS011;56677;51.710;5.366;2023-04-08T17:17:18;5.70;;;3.30;;
69485;SDS011;56677;51.710;5.366;2023-04-08T17:19:43;6.20;;;3.05;;
69485;SDS011;56677;51.710;5.366;2023-04-08T17:22:08;7.65;;;3.00;;
69485;SDS011;56677;51.710;5.366;2023-04-08T17:24:33;7.23;;;2.90;;
69485;SDS011;56677;51.710;5.366;2023-04-08T17:26:59;5.38;;;2.90;;
69485;SDS011;56677;51.710;5.366;2023-04-08T17:29:24;6.83;;;3.17;;
69485;SDS011;56677;51.710;5.366;2023-04-08T17:31:49;7.77;;;3.10;;
69485;SDS011;56677;51.710;5.366;2023-04-08T17:34:14;5.70;;;2.88;;
69485;SDS011;56677;51.710;5.366;2023-04-08T17:36:39;7.63;;;2.70;;
69485;SDS011;56677;51.710;5.366;2023-04-08T17:39:04;7.45;;;3.30;;
69485;SDS011;56677;51.710;5.366;2023-04-08T17:41:30;6.93;;;3.20;;
69485;SDS011;56677;51.710;5.366;2023-04-08T17:43:55;5.68;;;3.00;;
69485;SDS011;56677;51.710;5.366;2023-04-08T17:46:20;5.23;;;2.67;;
69485;SDS011;56677;51.710;5.366;2023-04-08T17:48:45;4.93;;;2.97;;
69485;SDS011;56677;51.710;5.366;2023-04-08T17:51:10;7.10;;;3.10;;
69485;SDS011;56677;51.710;5.366;2023-04-08T17:53:35;7.22;;;3.00;;
69485;SDS011;56677;51.710;5.366;2023-04-08T17:56:00;7.90;;;3.13;;
69485;SDS011;56677;51.710;5.366;2023-04-08T17:58:25;6.47;;;3.30;;
69485;SDS011;56677;51.710;5.366;2023-04-08T18:00:51;5.47;;;2.95;;
69485;SDS011;56677;51.710;5.366;2023-04-08T18:03:16;5.50;;;3.05;;
69485;SDS011;56677;51.710;5.366;2023-04-08T18:05:41;6.70;;;3.40;;
69485;SDS011;56677;51.710;5.366;2023-04-08T18:08:06;5.30;;;3.20;;
69485;SDS011;56677;51.710;5.366;2023-04-08T18:10:32;5.80;;;3.45;;
69485;SDS011;56677;51.710;5.366;2023-04-08T18:12:57;6.37;;;3.20;;
69485;SDS011;56677;51.710;5.366;2023-04-08T18:15:22;5.55;;;2.88;;
69485;SDS011;56677;51.710;5.366;2023-04-08T18:17:47;7.90;;;3.25;;
69485;SDS011;56677;51.710;5.366;2023-04-08T18:20:12;5.78;;;3.03;;
69485;SDS011;56677;51.710;5.366;2023-04-08T18:22:37;6.70;;;3.35;;
69485;SDS011;56677;51.710;5.366;2023-04-08T18:25:02;5.97;;;2.97;;
69485;SDS011;56677;51.710;5.366;2023-04-08T18:27:28;10.33;;;3.73;;
69485;SDS011;56677;51.710;5.366;2023-04-08T18:29:53;6.97;;;3.00;;
69485;SDS011;56677;51.710;5.366;2023-04-08T18:32:18;6.60;;;3.17;;
69485;SDS011;56677;51.710;5.366;2023-04-08T18:34:43;6.28;;;3.10;;
69485;SDS011;56677;51.710;5.366;2023-04-08T18:37:08;8.23;;;2.95;;
69485;SDS011;56677;51.710;5.366;2023-04-08T18:39:33;5.30;;;3.03;;
69485;SDS011;56677;51.710;5.366;2023-04-08T18:41:58;5.20;;;2.92;;
69485;SDS011;56677;51.710;5.366;2023-04-08T18:44:23;5.50;;;3.05;;
69485;SDS011;56677;51.710;5.366;2023-04-08T18:46:49;6.50;;;3.30;;
69485;SDS011;56677;51.710;5.366;2023-04-08T18:49:14;6.05;;;3.10;;
69485;SDS011;56677;51.710;5.366;2023-04-08T18:51:39;7.15;;;3.28;;
69485;SDS011;56677;51.710;5.366;2023-04-08T18:54:04;6.17;;;3.50;;
69485;SDS011;56677;51.710;5.366;2023-04-08T18:56:29;8.38;;;3.10;;
69485;SDS011;56677;51.710;5.366;2023-04-08T18:58:54;5.47;;;2.80;;
69485;SDS011;56677;51.710;5.366;2023-04-08T19:01:19;5.85;;;3.13;;
69485;SDS011;56677;51.710;5.366;2023-04-08T19:03:44;5.93;;;3.00;;
69485;SDS011;56677;51.710;5.366;2023-04-08T19:06:10;6.20;;;3.07;;
69485;SDS011;56677;51.710;5.366;2023-04-08T19:08:35;6.15;;;3.20;;
69485;SDS011;56677;51.710;5.366;2023-04-08T19:11:01;7.27;;;3.43;;
69485;SDS011;56677;51.710;5.366;2023-04-08T19:13:26;6.23;;;2.63;;
69485;SDS011;56677;51.710;5.366;2023-04-08T19:15:51;5.05;;;2.83;;
69485;SDS011;56677;51.710;5.366;2023-04-08T19:18:16;5.95;;;3.05;;
69485;SDS011;56677;51.710;5.366;2023-04-08T19:20:41;7.85;;;3.72;;
69485;SDS011;56677;51.710;5.366;2023-04-08T19:23:06;5.25;;;3.13;;
69485;SDS011;56677;51.710;5.366;2023-04-08T19:25:32;5.33;;;3.00;;
69485;SDS011;56677;51.710;5.366;2023-04-08T19:27:57;6.77;;;3.17;;
69485;SDS011;56677;51.710;5.366;2023-04-08T19:30:22;4.90;;;3.10;;
69485;SDS011;56677;51.710;5.366;2023-04-08T19:32:47;7.23;;;3.13;;
69485;SDS011;56677;51.710;5.366;2023-04-08T19:35:13;4.57;;;2.80;;
69485;SDS011;56677;51.710;5.366;2023-04-08T19:37:38;6.25;;;2.83;;
69485;SDS011;56677;51.710;5.366;2023-04-08T19:40:03;5.45;;;3.03;;
69485;SDS011;56677;51.710;5.366;2023-04-08T19:42:28;6.63;;;2.90;;
69485;SDS011;56677;51.710;5.366;2023-04-08T19:44:53;4.85;;;2.83;;
69485;SDS011;56677;51.710;5.366;2023-04-08T19:47:18;9.60;;;2.95;;
69485;SDS011;56677;51.710;5.366;2023-04-08T19:49:44;6.38;;;3.30;;
69485;SDS011;56677;51.710;5.366;2023-04-08T19:52:09;5.47;;;2.97;;
69485;SDS011;56677;51.710;5.366;2023-04-08T19:54:34;5.87;;;3.27;;
69485;SDS011;56677;51.710;5.366;2023-04-08T19:56:59;5.72;;;3.00;;
69485;SDS011;56677;51.710;5.366;2023-04-08T19:59:24;5.72;;;2.90;;
69485;SDS011;56677;51.710;5.366;2023-04-08T20:01:50;5.03;;;3.07;;
69485;SDS011;56677;51.710;5.366;2023-04-08T20:04:15;5.47;;;3.15;;
69485;SDS011;56677;51.710;5.366;2023-04-08T20:06:40;4.63;;;3.05;;
69485;SDS011;56677;51.710;5.366;2023-04-08T20:09:05;7.22;;;3.28;;
69485;SDS011;56677;51.710;5.366;2023-04-08T20:11:31;7.35;;;3.83;;
69485;SDS011;56677;51.710;5.366;2023-04-08T20:13:56;5.40;;;3.37;;
69485;SDS011;56677;51.710;5.366;2023-04-08T20:16:21;5.70;;;3.03;;
69485;SDS011;56677;51.710;5.366;2023-04-08T20:18:46;4.60;;;2.92;;
69485;SDS011;56677;51.710;5.366;2023-04-08T20:21:11;6.97;;;2.95;;
69485;SDS011;56677;51.710;5.366;2023-04-08T20:23:36;7.65;;;3.05;;
69485;SDS011;56677;51.710;5.366;2023-04-08T20:26:02;5.30;;;3.20;;
69485;SDS011;56677;51.710;5.366;2023-04-08T20:28:27;6.25;;;3.22;;
69485;SDS011;56677;51.710;5.366;2023-04-08T20:30:52;5.93;;;3.72;;
69485;SDS011;56677;51.710;5.366;2023-04-08T20:33:17;7.45;;;3.13;;
69485;SDS011;56677;51.710;5.366;2023-04-08T20:35:42;6.60;;;3.10;;
69485;SDS011;56677;51.710;5.366;2023-04-08T20:38:07;6.82;;;3.13;;
69485;SDS011;56677;51.710;5.366;2023-04-08T20:40:32;5.23;;;2.90;;
69485;SDS011;56677;51.710;5.366;2023-04-08T20:42:58;7.53;;;3.43;;
69485;SDS011;56677;51.710;5.366;2023-04-08T20:45:23;5.53;;;3.08;;
69485;SDS011;56677;51.710;5.366;2023-04-08T20:47:48;5.60;;;3.17;;
69485;SDS011;56677;51.710;5.366;2023-04-08T20:50:13;6.05;;;2.88;;
69485;SDS011;56677;51.710;5.366;2023-04-08T20:52:38;6.57;;;3.70;;
69485;SDS011;56677;51.710;5.366;2023-04-08T20:55:04;5.03;;;2.80;;
69485;SDS011;56677;51.710;5.366;2023-04-08T20:57:30;6.80;;;3.63;;
69485;SDS011;56677;51.710;5.366;2023-04-08T20:59:55;4.53;;;3.00;;
69485;SDS011;56677;51.710;5.366;2023-04-08T21:02:20;5.43;;;3.63;;
69485;SDS011;56677;51.710;5.366;2023-04-08T21:04:45;6.50;;;3.33;;
69485;SDS011;56677;51.710;5.366;2023-04-08T21:07:10;5.93;;;3.50;;
69485;SDS011;56677;51.710;5.366;2023-04-08T21:09:35;4.90;;;3.10;;
69485;SDS011;56677;51.710;5.366;2023-04-08T21:12:01;5.60;;;3.67;;
69485;SDS011;56677;51.710;5.366;2023-04-08T21:14:26;4.65;;;3.10;;
69485;SDS011;56677;51.710;5.366;2023-04-08T21:16:51;5.03;;;3.10;;
69485;SDS011;56677;51.710;5.366;2023-04-08T21:19:16;5.30;;;3.22;;
69485;SDS011;56677;51.710;5.366;2023-04-08T21:21:43;5.60;;;3.20;;
69485;SDS011;56677;51.710;5.366;2023-04-08T21:24:08;5.97;;;3.40;;